Time;durP1;ratioP1;P1;durP2;ratioP2;P2;SDS_P1;SDS_P2;PMS_P1;PMS_P2;Temp;Humidity;BMP_temperature;BMP_pressure;BME280_temperature;BME280_humidity;BME280_pressure;Samples;Min_cycle;Max_cycle;Signal;HPM_P1;HPM_P2
2022/02/19 00:00:24;;;;;;;;;0.00;0.00;;;;;;;;5056420;28;11349;-77
2022/02/19 00:02:52;;;;;;;;;1.00;0.00;;;;;;;;5035580;28;12267;-76
2022/02/19 00:05:20;;;;;;;;;1.50;0.00;;;;;;;;5061666;28;11454;-77
2022/02/19 00:07:49;;;;;;;;;0.00;0.00;;;;;;;;5048254;28;11427;-76
2022/02/19 00:10:17;;;;;;;;;2.00;0.00;;;;;;;;5056418;28;11573;-77
2022/02/19 00:12:44;;;;;;;;;1.25;0.00;;;;;;;;5056747;28;11439;-76
2022/02/19 00:15:12;;;;;;;;;1.00;1.00;;;;;;;;5047626;28;11438;-77
2022/02/19 00:17:39;;;;;;;;;0.00;0.00;;;;;;;;5052408;28;11444;-77
2022/02/19 00:20:10;;;;;;;;;1.00;0.00;;;;;;;;5054198;28;11552;-76
2022/02/19 00:22:37;;;;;;;;;1.00;0.00;;;;;;;;5057846;28;11445;-77
2022/02/19 00:25:06;;;;;;;;;0.25;0.00;;;;;;;;5046454;28;11433;-77
2022/02/19 00:27:34;;;;;;;;;0.00;0.00;;;;;;;;5048028;28;11663;-77
2022/02/19 00:30:01;;;;;;;;;0.00;0.00;;;;;;;;5068514;28;11427;-77
2022/02/19 00:32:29;;;;;;;;;1.00;1.00;;;;;;;;5044080;28;11497;-77
2022/02/19 00:34:56;;;;;;;;;0.50;0.00;;;;;;;;5045365;28;11481;-77
2022/02/19 00:37:23;;;;;;;;;1.00;0.00;;;;;;;;5055293;28;11500;-77
2022/02/19 00:39:50;;;;;;;;;1.75;0.00;;;;;;;;5054635;28;11432;-77
2022/02/19 00:42:19;;;;;;;;;1.00;1.00;;;;;;;;5051568;28;11554;-76
2022/02/19 00:44:46;;;;;;;;;2.00;1.00;;;;;;;;5069932;28;11444;-76
2022/02/19 00:47:14;;;;;;;;;0.00;0.00;;;;;;;;5042397;28;11416;-76
2022/02/19 00:49:41;;;;;;;;;0.00;0.00;;;;;;;;5057757;28;11437;-77
2022/02/19 00:52:09;;;;;;;;;0.00;0.00;;;;;;;;5035789;28;11538;-77
2022/02/19 00:54:36;;;;;;;;;0.50;0.00;;;;;;;;5056196;28;11469;-76
2022/02/19 00:57:04;;;;;;;;;1.00;1.00;;;;;;;;5072246;28;11412;-77
2022/02/19 00:59:32;;;;;;;;;2.50;0.25;;;;;;;;5051870;28;11603;-77
2022/02/19 01:02:00;;;;;;;;;0.00;0.00;;;;;;;;5055637;28;11622;-77
2022/02/19 01:04:27;;;;;;;;;0.00;0.00;;;;;;;;5059478;28;11515;-77
2022/02/19 01:06:54;;;;;;;;;2.00;0.00;;;;;;;;5047924;28;11562;-77
2022/02/19 01:09:26;;;;;;;;;0.00;0.00;;;;;;;;5046836;28;11494;-77
2022/02/19 01:11:53;;;;;;;;;0.00;0.00;;;;;;;;5049401;28;11497;-77
2022/02/19 01:14:21;;;;;;;;;0.00;0.00;;;;;;;;5057384;28;12354;-78
2022/02/19 01:16:49;;;;;;;;;1.50;0.00;;;;;;;;5048201;28;12211;-77
2022/02/19 01:19:16;;;;;;;;;0.00;0.00;;;;;;;;5058447;28;11472;-76
2022/02/19 01:21:44;;;;;;;;;1.50;0.00;;;;;;;;5037737;28;12733;-77
2022/02/19 01:24:12;;;;;;;;;0.00;0.00;;;;;;;;5041404;28;11415;-75
2022/02/19 01:26:39;;;;;;;;;4.00;1.00;;;;;;;;5060337;28;11440;-76
2022/02/19 01:29:07;;;;;;;;;0.75;0.75;;;;;;;;5064159;28;11557;-77
2022/02/19 01:31:35;;;;;;;;;0.00;0.00;;;;;;;;5059564;28;11455;-77
2022/02/19 01:34:04;;;;;;;;;0.25;0.00;;;;;;;;5049029;28;11580;-76
2022/02/19 01:36:31;;;;;;;;;0.00;0.00;;;;;;;;5060929;28;11549;-77
2022/02/19 01:38:59;;;;;;;;;0.00;0.00;;;;;;;;5055421;28;11534;-77
2022/02/19 01:41:26;;;;;;;;;0.50;0.00;;;;;;;;5055342;28;11463;-77
2022/02/19 01:43:53;;;;;;;;;0.00;0.00;;;;;;;;5074098;28;11503;-77
2022/02/19 01:46:21;;;;;;;;;0.00;0.00;;;;;;;;5053580;28;11520;-77
2022/02/19 01:48:48;;;;;;;;;0.00;0.00;;;;;;;;5043697;28;11555;-76
2022/02/19 01:51:17;;;;;;;;;1.00;0.00;;;;;;;;5056555;28;11520;-77
2022/02/19 01:53:45;;;;;;;;;1.25;0.00;;;;;;;;5062705;28;11470;-77
2022/02/19 01:56:12;;;;;;;;;0.00;0.00;;;;;;;;5060463;28;11644;-77
2022/02/19 01:58:40;;;;;;;;;2.00;0.00;;;;;;;;5056682;28;11445;-77
2022/02/19 02:01:08;;;;;;;;;1.00;0.00;;;;;;;;5058124;28;11367;-76
2022/02/19 02:03:36;;;;;;;;;0.50;0.00;;;;;;;;5058623;28;11440;-77
2022/02/19 02:06:04;;;;;;;;;1.25;0.00;;;;;;;;5061795;28;11462;-77
2022/02/19 02:08:34;;;;;;;;;0.00;0.00;;;;;;;;5048976;28;11539;-78
2022/02/19 02:11:03;;;;;;;;;0.50;0.00;;;;;;;;5056720;28;11531;-78
2022/02/19 02:13:30;;;;;;;;;2.00;0.50;;;;;;;;5054969;28;12263;-78
2022/02/19 02:15:57;;;;;;;;;2.50;0.00;;;;;;;;5056303;28;11491;-77
2022/02/19 02:18:25;;;;;;;;;1.00;0.00;;;;;;;;5055620;28;11537;-77
2022/02/19 02:20:53;;;;;;;;;1.00;0.25;;;;;;;;5055456;28;11518;-77
2022/02/19 02:23:22;;;;;;;;;1.25;0.00;;;;;;;;5045886;28;11538;-77
2022/02/19 02:25:49;;;;;;;;;0.00;0.00;;;;;;;;5059124;28;11522;-77
2022/02/19 02:28:16;;;;;;;;;0.00;0.00;;;;;;;;5060905;28;11488;-77
2022/02/19 02:30:44;;;;;;;;;1.00;0.00;;;;;;;;5053527;28;12296;-77
2022/02/19 02:33:15;;;;;;;;;0.00;0.00;;;;;;;;5043939;28;12379;-77
2022/02/19 02:35:42;;;;;;;;;0.00;0.00;;;;;;;;5046698;28;11512;-77
2022/02/19 02:38:10;;;;;;;;;1.00;0.00;;;;;;;;5049194;28;11516;-77
2022/02/19 02:40:39;;;;;;;;;0.00;0.00;;;;;;;;5048429;28;12257;-77
2022/02/19 02:43:07;;;;;;;;;0.00;0.00;;;;;;;;5043640;28;11567;-77
2022/02/19 02:45:34;;;;;;;;;1.00;0.00;;;;;;;;5055431;28;11532;-76
2022/02/19 02:48:02;;;;;;;;;1.00;1.00;;;;;;;;5053320;28;11528;-77
2022/02/19 02:50:29;;;;;;;;;0.00;0.00;;;;;;;;5053455;28;11996;-77
2022/02/19 02:52:57;;;;;;;;;0.00;0.00;;;;;;;;5059358;28;11470;-77
2022/02/19 02:55:24;;;;;;;;;2.00;0.00;;;;;;;;5056641;28;11527;-77
2022/02/19 02:57:53;;;;;;;;;0.00;0.00;;;;;;;;5035091;28;11487;-77
2022/02/19 03:00:20;;;;;;;;;0.50;0.00;;;;;;;;5052445;28;11479;-78
2022/02/19 03:02:48;;;;;;;;;4.00;0.00;;;;;;;;5052754;28;11598;-77
2022/02/19 03:05:15;;;;;;;;;0.00;0.00;;;;;;;;5049007;28;11604;-76
2022/02/19 03:07:43;;;;;;;;;0.00;0.00;;;;;;;;5049380;28;11518;-76
2022/02/19 03:10:13;;;;;;;;;0.25;0.00;;;;;;;;5055732;28;11487;-76
2022/02/19 03:12:40;;;;;;;;;1.00;0.00;;;;;;;;5058858;28;11682;-76
2022/02/19 03:15:10;;;;;;;;;0.75;0.00;;;;;;;;5048056;28;11484;-76
2022/02/19 03:17:38;;;;;;;;;0.00;0.00;;;;;;;;5043113;28;11572;-79
2022/02/19 03:20:07;;;;;;;;;2.00;0.00;;;;;;;;5047912;28;11629;-76
2022/02/19 03:22:36;;;;;;;;;0.00;0.00;;;;;;;;5051557;28;11504;-76
2022/02/19 03:25:04;;;;;;;;;0.00;0.00;;;;;;;;5033863;28;11478;-77
2022/02/19 03:27:31;;;;;;;;;2.00;0.00;;;;;;;;5049655;28;11488;-77
2022/02/19 03:29:58;;;;;;;;;0.00;0.00;;;;;;;;5056344;28;11661;-77
2022/02/19 03:32:27;;;;;;;;;0.00;0.00;;;;;;;;5054642;28;11449;-78
2022/02/19 03:34:54;;;;;;;;;1.75;0.00;;;;;;;;5064029;28;11501;-78
2022/02/19 03:37:21;;;;;;;;;0.00;0.00;;;;;;;;5050292;28;11507;-78
2022/02/19 03:39:49;;;;;;;;;0.00;0.00;;;;;;;;5028210;28;11490;-77
2022/02/19 03:42:16;;;;;;;;;0.00;0.00;;;;;;;;5049604;28;11497;-78
2022/02/19 03:44:44;;;;;;;;;0.00;0.00;;;;;;;;5050897;28;11487;-78
2022/02/19 03:47:11;;;;;;;;;1.00;0.00;;;;;;;;5049627;28;12328;-77
2022/02/19 03:49:40;;;;;;;;;1.00;1.00;;;;;;;;5042115;28;11515;-77
2022/02/19 03:52:08;;;;;;;;;0.00;0.00;;;;;;;;5046625;28;11550;-77
2022/02/19 03:54:35;;;;;;;;;0.00;0.00;;;;;;;;5051460;28;11523;-78
2022/02/19 03:57:02;;;;;;;;;2.00;0.00;;;;;;;;5047014;28;11610;-77
2022/02/19 03:59:30;;;;;;;;;0.00;0.00;;;;;;;;5056700;28;11740;-78
2022/02/19 04:01:57;;;;;;;;;0.00;0.00;;;;;;;;5057191;28;11469;-78
2022/02/19 04:04:24;;;;;;;;;0.00;0.00;;;;;;;;5045343;28;11628;-77
2022/02/19 04:06:53;;;;;;;;;2.00;1.00;;;;;;;;5055735;28;11516;-77
2022/02/19 04:09:20;;;;;;;;;0.50;0.00;;;;;;;;5032683;28;11605;-77
2022/02/19 04:11:48;;;;;;;;;4.00;0.00;;;;;;;;5057512;28;11564;-77
2022/02/19 04:14:15;;;;;;;;;0.00;0.00;;;;;;;;5047318;28;11501;-77
2022/02/19 04:16:42;;;;;;;;;0.00;0.00;;;;;;;;5059010;28;11617;-77
2022/02/19 04:19:09;;;;;;;;;0.00;0.00;;;;;;;;5057894;28;11578;-77
2022/02/19 04:21:37;;;;;;;;;0.00;0.00;;;;;;;;5051681;28;11520;-77
2022/02/19 04:24:07;;;;;;;;;0.00;0.00;;;;;;;;5051570;28;11504;-78
2022/02/19 04:26:34;;;;;;;;;0.50;0.50;;;;;;;;5036413;28;11499;-78
2022/02/19 04:29:02;;;;;;;;;0.00;0.00;;;;;;;;5052972;28;12117;-78
2022/02/19 04:31:29;;;;;;;;;2.00;0.00;;;;;;;;5055249;28;11449;-78
2022/02/19 04:33:56;;;;;;;;;2.00;0.25;;;;;;;;5047689;28;11646;-78
2022/02/19 04:36:23;;;;;;;;;0.00;0.00;;;;;;;;5050788;28;11497;-77
2022/02/19 04:38:51;;;;;;;;;1.25;0.00;;;;;;;;5051596;28;11497;-77
2022/02/19 04:41:19;;;;;;;;;0.25;0.25;;;;;;;;5054714;28;11495;-77
2022/02/19 04:43:46;;;;;;;;;1.00;0.00;;;;;;;;5051723;28;11489;-77
2022/02/19 04:46:14;;;;;;;;;3.50;0.00;;;;;;;;5030358;28;11494;-77
2022/02/19 04:48:41;;;;;;;;;0.00;0.00;;;;;;;;5043480;28;11517;-77
2022/02/19 04:51:09;;;;;;;;;1.00;0.00;;;;;;;;5063018;28;11509;-77
2022/02/19 04:53:36;;;;;;;;;0.00;0.00;;;;;;;;5057703;28;11559;-77
2022/02/19 04:56:04;;;;;;;;;0.00;0.00;;;;;;;;5058503;28;11574;-75
2022/02/19 04:58:33;;;;;;;;;1.00;1.00;;;;;;;;5049102;28;11508;-77
2022/02/19 05:01:01;;;;;;;;;0.75;0.75;;;;;;;;5051928;28;11588;-77
2022/02/19 05:03:29;;;;;;;;;1.00;1.00;;;;;;;;5057449;28;12258;-76
2022/02/19 05:05:56;;;;;;;;;0.00;0.00;;;;;;;;5056241;28;11669;-77
2022/02/19 05:08:23;;;;;;;;;0.00;0.00;;;;;;;;5059233;28;12316;-77
2022/02/19 05:10:51;;;;;;;;;0.75;0.00;;;;;;;;5060074;28;11509;-77
2022/02/19 05:13:18;;;;;;;;;0.50;0.50;;;;;;;;5032358;28;11598;-77
2022/02/19 05:15:47;;;;;;;;;0.00;0.00;;;;;;;;5058369;28;11480;-77
2022/02/19 05:18:15;;;;;;;;;1.00;1.00;;;;;;;;5055870;28;11609;-78
2022/02/19 05:20:44;;;;;;;;;0.00;0.00;;;;;;;;5050835;28;11559;-77
2022/02/19 05:23:11;;;;;;;;;2.00;0.00;;;;;;;;5057634;28;12437;-78
2022/02/19 05:25:40;;;;;;;;;0.00;0.00;;;;;;;;5057403;28;11626;-78
2022/02/19 05:28:08;;;;;;;;;2.00;0.75;;;;;;;;5051560;28;11496;-76
2022/02/19 05:30:36;;;;;;;;;1.00;0.00;;;;;;;;5044052;28;11408;-78
2022/02/19 05:33:05;;;;;;;;;0.00;0.00;;;;;;;;5061465;28;11623;-78
2022/02/19 05:35:32;;;;;;;;;1.75;0.00;;;;;;;;5054816;28;11497;-77
2022/02/19 05:38:00;;;;;;;;;1.00;0.00;;;;;;;;5052911;28;11515;-76
2022/02/19 05:40:27;;;;;;;;;1.50;0.00;;;;;;;;5053183;28;11498;-77
2022/02/19 05:42:55;;;;;;;;;0.00;0.00;;;;;;;;5060876;28;11509;-77
2022/02/19 05:45:22;;;;;;;;;0.00;0.00;;;;;;;;5037804;28;11646;-77
2022/02/19 05:47:49;;;;;;;;;3.50;1.50;;;;;;;;5053326;28;11519;-77
2022/02/19 05:50:18;;;;;;;;;0.00;0.00;;;;;;;;5035887;28;11545;-77
2022/02/19 05:52:45;;;;;;;;;1.00;0.00;;;;;;;;5045460;28;11536;-77
2022/02/19 05:55:13;;;;;;;;;0.50;0.00;;;;;;;;5044191;28;11586;-77
2022/02/19 05:57:46;;;;;;;;;0.25;0.25;;;;;;;;5059593;28;11480;-77
2022/02/19 06:00:14;;;;;;;;;3.25;0.00;;;;;;;;5060642;28;11475;-77
2022/02/19 06:02:42;;;;;;;;;0.00;0.00;;;;;;;;5047143;28;11476;-78
2022/02/19 06:05:09;;;;;;;;;1.00;1.00;;;;;;;;5052610;28;11661;-78
2022/02/19 06:07:39;;;;;;;;;2.00;1.00;;;;;;;;5051758;28;11498;-77
2022/02/19 06:10:07;;;;;;;;;0.75;0.00;;;;;;;;5043126;28;11884;-77
2022/02/19 06:12:34;;;;;;;;;3.00;0.00;;;;;;;;5046370;28;11621;-77
2022/02/19 06:15:01;;;;;;;;;1.75;0.00;;;;;;;;5049587;28;11486;-78
2022/02/19 06:17:29;;;;;;;;;0.00;0.00;;;;;;;;5056993;28;11468;-77
2022/02/19 06:19:57;;;;;;;;;0.50;0.25;;;;;;;;5057634;28;11486;-77
2022/02/19 06:22:24;;;;;;;;;0.00;0.00;;;;;;;;5080146;28;11505;-78
2022/02/19 06:24:53;;;;;;;;;1.00;1.00;;;;;;;;5055258;28;11506;-77
2022/02/19 06:27:20;;;;;;;;;0.00;0.00;;;;;;;;5060947;28;12190;-77
2022/02/19 06:29:48;;;;;;;;;0.00;0.00;;;;;;;;5047842;28;11531;-78
2022/02/19 06:32:16;;;;;;;;;0.00;0.00;;;;;;;;5059295;28;11464;-78
2022/02/19 06:34:43;;;;;;;;;0.00;0.00;;;;;;;;5053804;28;12215;-78
2022/02/19 06:37:11;;;;;;;;;2.50;1.00;;;;;;;;5054634;28;11479;-78
2022/02/19 06:39:38;;;;;;;;;0.00;0.00;;;;;;;;5053851;28;11495;-77
2022/02/19 06:42:08;;;;;;;;;0.00;0.00;;;;;;;;5055185;28;12371;-77
2022/02/19 06:44:35;;;;;;;;;0.00;0.00;;;;;;;;5055245;28;11597;-77
2022/02/19 06:47:02;;;;;;;;;0.00;0.00;;;;;;;;5052282;28;11577;-77
2022/02/19 06:49:30;;;;;;;;;1.00;0.00;;;;;;;;5058858;28;11639;-77
2022/02/19 06:51:58;;;;;;;;;1.00;0.00;;;;;;;;5053190;28;11617;-77
2022/02/19 06:54:26;;;;;;;;;0.00;0.00;;;;;;;;5055289;28;11493;-77
2022/02/19 06:56:55;;;;;;;;;0.75;0.00;;;;;;;;5059036;28;12261;-78
2022/02/19 06:59:24;;;;;;;;;0.00;0.00;;;;;;;;5055171;28;11524;-79
2022/02/19 07:01:51;;;;;;;;;0.00;0.00;;;;;;;;5053331;28;11426;-78
2022/02/19 07:04:18;;;;;;;;;0.00;0.00;;;;;;;;5055918;28;11612;-78
2022/02/19 07:06:45;;;;;;;;;1.00;1.00;;;;;;;;5057144;28;11491;-78
2022/02/19 07:09:13;;;;;;;;;1.00;1.00;;;;;;;;5053180;28;11494;-78
2022/02/19 07:11:40;;;;;;;;;0.00;0.00;;;;;;;;5036323;28;11481;-78
2022/02/19 07:14:08;;;;;;;;;0.00;0.00;;;;;;;;5057168;28;11473;-78
2022/02/19 07:16:37;;;;;;;;;1.75;0.25;;;;;;;;5054721;28;11533;-76
2022/02/19 07:19:04;;;;;;;;;1.00;0.00;;;;;;;;5058019;28;11924;-76
2022/02/19 07:21:32;;;;;;;;;0.00;0.00;;;;;;;;5055861;28;11573;-80
2022/02/19 07:23:59;;;;;;;;;1.00;1.00;;;;;;;;5061443;28;11540;-78
2022/02/19 07:26:27;;;;;;;;;2.00;0.50;;;;;;;;5051183;28;11492;-75
2022/02/19 07:28:54;;;;;;;;;0.25;0.25;;;;;;;;5067861;28;11558;-76
2022/02/19 07:31:21;;;;;;;;;2.00;1.00;;;;;;;;5057182;28;11444;-76
2022/02/19 07:33:50;;;;;;;;;1.00;0.00;;;;;;;;5064687;28;11507;-81
2022/02/19 07:36:17;;;;;;;;;0.00;0.00;;;;;;;;5057820;28;11471;-83
2022/02/19 07:38:45;;;;;;;;;4.00;1.75;;;;;;;;5057700;28;11522;-81
2022/02/19 07:41:12;;;;;;;;;1.00;1.00;;;;;;;;5055383;28;11496;-76
2022/02/19 07:43:40;;;;;;;;;2.00;0.50;;;;;;;;5059633;28;11481;-78
2022/02/19 07:46:07;;;;;;;;;0.00;0.00;;;;;;;;5057146;28;11541;-74
2022/02/19 07:48:35;;;;;;;;;0.00;0.00;;;;;;;;5057026;28;11593;-79
2022/02/19 07:59:26;;;;;;;;;2.00;0.00;;;;;;;;5045547;28;12330;-77
2022/02/19 08:01:54;;;;;;;;;3.00;1.00;;;;;;;;5054339;28;11568;-75
2022/02/19 08:04:21;;;;;;;;;0.00;0.00;;;;;;;;5050988;28;11643;-75
2022/02/19 08:06:51;;;;;;;;;1.00;1.00;;;;;;;;5058090;28;11599;-76
2022/02/19 08:09:19;;;;;;;;;0.00;0.00;;;;;;;;5058727;28;11540;-75
2022/02/19 08:11:46;;;;;;;;;0.50;0.00;;;;;;;;5053530;28;11643;-76
2022/02/19 08:14:13;;;;;;;;;0.50;0.50;;;;;;;;5050123;28;11519;-76
2022/02/19 08:16:41;;;;;;;;;2.00;0.00;;;;;;;;5053601;28;11507;-76
2022/02/19 08:19:08;;;;;;;;;0.75;0.75;;;;;;;;5055939;28;11615;-75
2022/02/19 08:21:36;;;;;;;;;2.00;0.00;;;;;;;;5059893;28;11527;-75
2022/02/19 08:24:07;;;;;;;;;0.00;0.00;;;;;;;;5060370;28;11492;-76
2022/02/19 08:26:34;;;;;;;;;0.50;0.50;;;;;;;;5056551;28;11617;-76
2022/02/19 08:29:04;;;;;;;;;0.00;0.00;;;;;;;;5057123;28;11600;-77
2022/02/19 08:31:31;;;;;;;;;1.50;0.50;;;;;;;;5054381;28;11457;-74
2022/02/19 08:33:58;;;;;;;;;0.00;0.00;;;;;;;;5060266;28;11480;-76
2022/02/19 08:36:25;;;;;;;;;0.00;0.00;;;;;;;;5049943;28;11552;-75
2022/02/19 08:38:53;;;;;;;;;0.50;0.00;;;;;;;;5056448;28;11505;-77
2022/02/19 08:41:23;;;;;;;;;0.00;0.00;;;;;;;;5058950;28;11502;-77
2022/02/19 08:43:50;;;;;;;;;0.00;0.00;;;;;;;;5056585;28;11523;-77
2022/02/19 08:46:18;;;;;;;;;0.00;0.00;;;;;;;;5054328;28;11561;-75
2022/02/19 08:48:45;;;;;;;;;1.50;0.00;;;;;;;;5057478;28;11510;-73
2022/02/19 08:51:13;;;;;;;;;1.00;1.00;;;;;;;;5057878;28;12280;-77
2022/02/19 08:53:40;;;;;;;;;1.25;1.00;;;;;;;;5056001;28;11496;-80
2022/02/19 08:56:07;;;;;;;;;1.50;1.00;;;;;;;;5058862;28;11504;-79
2022/02/19 08:58:36;;;;;;;;;2.50;0.00;;;;;;;;5060807;28;11466;-83
2022/02/19 09:01:04;;;;;;;;;0.00;0.00;;;;;;;;5058671;28;11451;-79
2022/02/19 09:03:31;;;;;;;;;0.00;0.00;;;;;;;;5063938;28;11488;-83
2022/02/19 09:05:59;;;;;;;;;2.00;1.00;;;;;;;;5041182;28;11498;-84
2022/02/19 09:08:26;;;;;;;;;4.75;0.50;;;;;;;;5064629;28;12327;-82
2022/02/19 09:10:53;;;;;;;;;0.00;0.00;;;;;;;;5062733;28;11505;-83
2022/02/19 09:13:20;;;;;;;;;1.00;0.75;;;;;;;;5061455;28;11536;-84
2022/02/19 09:15:49;;;;;;;;;2.00;0.00;;;;;;;;5057976;28;11578;-80
2022/02/19 09:18:16;;;;;;;;;1.50;0.25;;;;;;;;5060526;28;11465;-84
2022/02/19 09:20:44;;;;;;;;;4.00;0.00;;;;;;;;5059263;28;11431;-82
2022/02/19 09:23:11;;;;;;;;;0.50;0.00;;;;;;;;5044189;28;11704;-82
2022/02/19 09:25:39;;;;;;;;;0.50;0.00;;;;;;;;5042230;28;11400;-84
2022/02/19 09:28:06;;;;;;;;;0.00;0.00;;;;;;;;5062088;28;11501;-79
2022/02/19 09:30:34;;;;;;;;;1.00;0.00;;;;;;;;5060747;28;11395;-79
2022/02/19 09:33:02;;;;;;;;;2.00;0.00;;;;;;;;5063027;28;11445;-80
2022/02/19 09:35:30;;;;;;;;;0.25;0.25;;;;;;;;5058388;28;11442;-80
2022/02/19 09:37:58;;;;;;;;;0.00;0.00;;;;;;;;5062133;28;11411;-79
2022/02/19 09:40:25;;;;;;;;;0.00;0.00;;;;;;;;5052334;28;11437;-83
2022/02/19 09:42:52;;;;;;;;;1.50;1.00;;;;;;;;5062741;28;11558;-89
2022/02/19 09:45:23;;;;;;;;;0.00;0.00;;;;;;;;5054683;28;11555;-81
2022/02/19 09:47:52;;;;;;;;;1.50;0.00;;;;;;;;5062579;28;11223;-76
2022/02/19 09:50:25;;;;;;;;;1.00;0.75;;;;;;;;5061378;28;11440;-76
2022/02/19 09:52:52;;;;;;;;;0.00;0.00;;;;;;;;5059862;28;11334;-86
2022/02/19 09:55:22;;;;;;;;;2.25;2.00;;;;;;;;5040603;28;11571;-86
2022/02/19 09:57:49;;;;;;;;;0.00;0.00;;;;;;;;5062765;28;11451;-80
2022/02/19 10:00:26;;;;;;;;;0.00;0.00;;;;;;;;5058249;28;11570;-82
2022/02/19 10:02:54;;;;;;;;;1.00;1.00;;;;;;;;5058683;28;11495;-80
2022/02/19 10:05:24;;;;;;;;;0.75;0.00;;;;;;;;5062781;28;11942;-78
2022/02/19 10:08:02;;;;;;;;;1.00;0.00;;;;;;;;5054469;28;11150;-78
2022/02/19 10:10:29;;;;;;;;;0.00;0.00;;;;;;;;5041390;28;10999;-81
2022/02/19 10:12:57;;;;;;;;;0.50;0.50;;;;;;;;5061556;28;11069;-77
2022/02/19 10:15:39;;;;;;;;;0.00;0.00;;;;;;;;5059539;28;11069;-76
2022/02/19 10:18:22;;;;;;;;;2.00;0.75;;;;;;;;5042199;28;10899;-78
2022/02/19 10:20:52;;;;;;;;;0.00;0.00;;;;;;;;5048627;28;10851;-84
2022/02/19 10:23:20;;;;;;;;;1.00;1.00;;;;;;;;5059207;28;10764;-82
2022/02/19 10:26:01;;;;;;;;;0.00;0.00;;;;;;;;5056194;28;10830;-75
2022/02/19 10:28:30;;;;;;;;;2.00;1.00;;;;;;;;5060922;28;11631;-77
2022/02/19 10:30:57;;;;;;;;;0.00;0.00;;;;;;;;5061106;28;10699;-79
2022/02/19 10:33:25;;;;;;;;;0.50;0.00;;;;;;;;5060456;28;10884;-83
2022/02/19 10:35:54;;;;;;;;;0.00;0.00;;;;;;;;5058026;28;10880;-82
2022/02/19 10:38:22;;;;;;;;;0.00;0.00;;;;;;;;5056861;28;10670;-83
2022/02/19 10:40:52;;;;;;;;;0.75;0.00;;;;;;;;5059433;28;10634;-84
2022/02/19 10:43:22;;;;;;;;;2.25;1.00;;;;;;;;5042192;28;11528;-82
2022/02/19 10:45:54;;;;;;;;;1.50;0.25;;;;;;;;5054288;28;10753;-84
2022/02/19 10:48:24;;;;;;;;;3.50;1.00;;;;;;;;5062036;28;10687;-75
2022/02/19 10:51:08;;;;;;;;;0.00;0.00;;;;;;;;5057293;28;10539;-78
2022/02/19 10:53:36;;;;;;;;;0.00;0.00;;;;;;;;5055341;28;10654;-77
2022/02/19 10:56:11;;;;;;;;;2.50;1.00;;;;;;;;5055984;28;10591;-81
2022/02/19 10:58:38;;;;;;;;;2.25;1.00;;;;;;;;5056320;28;10528;-74
2022/02/19 11:01:20;;;;;;;;;2.00;1.00;;;;;;;;5056735;28;10479;-76
2022/02/19 11:03:48;;;;;;;;;3.00;1.00;;;;;;;;5056037;28;11508;-80
2022/02/19 11:06:17;;;;;;;;;1.00;1.00;;;;;;;;5060090;28;11390;-76
2022/02/19 11:08:45;;;;;;;;;0.75;0.75;;;;;;;;5056803;28;10783;-86
2022/02/19 11:11:13;;;;;;;;;0.25;0.25;;;;;;;;5060783;28;11999;-77
2022/02/19 11:13:42;;;;;;;;;2.50;0.00;;;;;;;;5062418;28;10509;-75
2022/02/19 11:16:11;;;;;;;;;0.00;0.00;;;;;;;;5065077;28;10537;-83
2022/02/19 11:18:39;;;;;;;;;0.00;0.00;;;;;;;;5046357;28;11048;-88
2022/02/19 11:21:07;;;;;;;;;0.00;0.00;;;;;;;;5063473;28;10086;-83
2022/02/19 11:23:36;;;;;;;;;2.00;0.25;;;;;;;;5063665;28;10081;-83
2022/02/19 11:26:06;;;;;;;;;0.00;0.00;;;;;;;;5055516;28;10918;-81
2022/02/19 11:28:35;;;;;;;;;1.50;0.00;;;;;;;;5054352;28;10221;-78
2022/02/19 11:31:05;;;;;;;;;0.00;0.00;;;;;;;;5047640;28;10052;-81
2022/02/19 11:33:36;;;;;;;;;0.00;0.00;;;;;;;;5053215;28;10110;-79
2022/02/19 11:36:09;;;;;;;;;0.00;0.00;;;;;;;;5051986;28;10079;-81
2022/02/19 11:38:49;;;;;;;;;2.00;0.25;;;;;;;;5046485;28;10039;-78
2022/02/19 11:41:20;;;;;;;;;1.25;1.25;;;;;;;;5068733;28;10649;-81
2022/02/19 11:43:48;;;;;;;;;2.00;0.00;;;;;;;;5060096;28;10120;-80
2022/02/19 11:46:34;;;;;;;;;0.00;0.00;;;;;;;;5049136;28;9906;-80
2022/02/19 11:49:17;;;;;;;;;0.50;0.50;;;;;;;;5061273;28;9926;-84
2022/02/19 11:51:45;;;;;;;;;0.25;0.25;;;;;;;;5056496;28;9960;-83
2022/02/19 11:54:35;;;;;;;;;0.00;0.00;;;;;;;;5053579;28;10057;-79
2022/02/19 11:57:17;;;;;;;;;0.75;0.75;;;;;;;;5054517;28;9707;-86
2022/02/19 11:59:47;;;;;;;;;0.00;0.00;;;;;;;;5063904;28;9918;-77
2022/02/19 12:02:17;;;;;;;;;0.00;0.00;;;;;;;;5050095;28;9801;-80
2022/02/19 12:04:45;;;;;;;;;0.00;0.00;;;;;;;;5054311;28;9825;-81
2022/02/19 12:07:15;;;;;;;;;0.00;0.00;;;;;;;;5061508;28;9567;-82
2022/02/19 12:10:05;;;;;;;;;2.00;0.50;;;;;;;;5060484;28;9560;-78
2022/02/19 12:13:10;;;;;;;;;1.25;0.00;;;;;;;;5063457;28;10124;-78
2022/02/19 12:15:38;;;;;;;;;0.00;0.00;;;;;;;;5059731;28;9495;-80
2022/02/19 12:18:09;;;;;;;;;0.00;0.00;;;;;;;;5058419;28;9563;-82
2022/02/19 12:20:37;;;;;;;;;0.00;0.00;;;;;;;;5056370;28;9716;-84
2022/02/19 12:23:07;;;;;;;;;0.00;0.00;;;;;;;;5060678;28;10135;-81
2022/02/19 12:26:01;;;;;;;;;0.00;0.00;;;;;;;;5056126;28;9557;-78
2022/02/19 12:28:29;;;;;;;;;0.00;0.00;;;;;;;;5056145;28;9547;-78
2022/02/19 12:31:16;;;;;;;;;0.00;0.00;;;;;;;;5059918;28;9273;-79
2022/02/19 12:33:45;;;;;;;;;0.00;0.00;;;;;;;;5057499;28;9359;-77
2022/02/19 12:36:12;;;;;;;;;2.00;0.00;;;;;;;;5060227;28;9386;-77
2022/02/19 12:38:45;;;;;;;;;2.33;0.00;;;;;;;;5063723;28;9271;-79
2022/02/19 12:41:14;;;;;;;;;0.33;0.00;;;;;;;;5060354;28;10107;-78
2022/02/19 12:43:56;;;;;;;;;0.00;0.00;;;;;;;;5063874;28;9417;-79
2022/02/19 12:46:24;;;;;;;;;0.00;0.00;;;;;;;;5059445;28;9542;-75
2022/02/19 12:48:52;;;;;;;;;0.00;0.00;;;;;;;;5041080;28;9491;-77
2022/02/19 12:51:25;;;;;;;;;0.67;0.00;;;;;;;;5062142;28;9432;-77
2022/02/19 12:53:53;;;;;;;;;0.67;0.00;;;;;;;;5067301;28;9444;-84
2022/02/19 12:56:23;;;;;;;;;0.00;0.00;;;;;;;;5071207;28;10006;-79
2022/02/19 12:58:51;;;;;;;;;0.00;0.00;;;;;;;;5068226;28;9197;-75
2022/02/19 13:01:18;;;;;;;;;0.33;0.00;;;;;;;;5057874;28;9248;-78
2022/02/19 13:03:46;;;;;;;;;0.00;0.00;;;;;;;;5063121;28;9019;-79
2022/02/19 13:06:13;;;;;;;;;0.00;0.00;;;;;;;;5073041;28;8958;-84
2022/02/19 13:08:41;;;;;;;;;0.00;0.00;;;;;;;;5062915;28;9076;-84
2022/02/19 13:11:09;;;;;;;;;1.33;0.33;;;;;;;;5063053;28;9198;-78
2022/02/19 13:13:42;;;;;;;;;0.00;0.00;;;;;;;;5065483;28;8963;-81
2022/02/19 13:16:11;;;;;;;;;1.33;0.00;;;;;;;;5056762;28;9030;-78
2022/02/19 13:18:40;;;;;;;;;0.00;0.00;;;;;;;;5067111;28;9105;-76
2022/02/19 13:21:09;;;;;;;;;0.00;0.00;;;;;;;;5040653;28;9015;-77
2022/02/19 13:23:37;;;;;;;;;0.00;0.00;;;;;;;;5062615;28;9271;-77
2022/02/19 13:26:05;;;;;;;;;0.67;0.00;;;;;;;;5069853;28;9147;-77
2022/02/19 13:28:33;;;;;;;;;2.00;0.67;;;;;;;;5062700;28;9108;-77
2022/02/19 13:31:09;;;;;;;;;0.00;0.00;;;;;;;;5062784;28;9068;-77
2022/02/19 13:33:36;;;;;;;;;1.00;0.00;;;;;;;;5058109;28;9031;-76
2022/02/19 13:36:05;;;;;;;;;0.00;0.00;;;;;;;;5062850;28;8965;-76
2022/02/19 13:38:32;;;;;;;;;1.75;0.00;;;;;;;;5064296;28;8850;-76
2022/02/19 13:41:00;;;;;;;;;2.75;0.00;;;;;;;;5045261;28;8891;-76
2022/02/19 13:43:27;;;;;;;;;0.00;0.00;;;;;;;;5063903;28;8872;-76
2022/02/19 13:45:55;;;;;;;;;0.00;0.00;;;;;;;;5061533;28;8888;-76
2022/02/19 13:48:32;;;;;;;;;0.00;0.00;;;;;;;;5062839;28;8900;-77
2022/02/19 13:51:01;;;;;;;;;0.00;0.00;;;;;;;;5064541;28;8909;-76
2022/02/19 13:53:30;;;;;;;;;0.75;0.00;;;;;;;;5068433;28;8946;-77
2022/02/19 13:56:02;;;;;;;;;0.00;0.00;;;;;;;;5066880;28;8973;-76
2022/02/19 13:58:30;;;;;;;;;0.00;0.00;;;;;;;;5062894;28;8856;-76
2022/02/19 14:01:10;;;;;;;;;0.33;0.00;;;;;;;;5062725;28;8901;-76
2022/02/19 14:03:46;;;;;;;;;0.75;0.00;;;;;;;;5061905;28;9876;-76
2022/02/19 14:06:32;;;;;;;;;0.00;0.00;;;;;;;;5063979;28;8865;-77
2022/02/19 14:09:16;;;;;;;;;0.00;0.00;;;;;;;;5062460;28;8954;-77
2022/02/19 14:11:50;;;;;;;;;0.00;0.00;;;;;;;;5064064;28;9059;-77
2022/02/19 14:14:25;;;;;;;;;0.00;0.00;;;;;;;;5063286;28;9048;-77
2022/02/19 14:17:04;;;;;;;;;0.00;0.00;;;;;;;;5057760;28;9224;-76
2022/02/19 14:19:33;;;;;;;;;2.00;0.67;;;;;;;;5065031;28;9931;-76
2022/02/19 14:22:06;;;;;;;;;1.75;0.00;;;;;;;;5066612;28;9396;-76
2022/02/19 14:24:33;;;;;;;;;0.00;0.00;;;;;;;;5061387;28;9512;-76
2022/02/19 14:27:14;;;;;;;;;0.00;0.00;;;;;;;;5067847;28;9538;-76
2022/02/19 14:29:42;;;;;;;;;1.00;0.00;;;;;;;;5070476;28;10480;-76
2022/02/19 14:32:10;;;;;;;;;0.00;0.00;;;;;;;;5039196;28;9594;-75
2022/02/19 14:34:39;;;;;;;;;1.00;0.00;;;;;;;;5076475;28;9639;-75
2022/02/19 14:37:06;;;;;;;;;0.00;0.00;;;;;;;;5061925;28;10679;-75
2022/02/19 14:39:34;;;;;;;;;2.00;0.00;;;;;;;;5061303;28;9970;-75
2022/02/19 14:42:01;;;;;;;;;0.00;0.00;;;;;;;;5061813;28;9843;-75
2022/02/19 14:44:30;;;;;;;;;1.00;1.00;;;;;;;;5062107;28;9811;-76
2022/02/19 14:46:58;;;;;;;;;0.25;0.25;;;;;;;;5060120;28;10009;-76
2022/02/19 14:49:26;;;;;;;;;1.00;1.00;;;;;;;;5060653;28;10044;-75
2022/02/19 14:51:55;;;;;;;;;3.75;1.75;;;;;;;;5051810;28;10039;-76
2022/02/19 14:54:26;;;;;;;;;1.50;0.25;;;;;;;;5073816;28;10062;-75
2022/02/19 14:56:54;;;;;;;;;0.25;0.25;;;;;;;;5059005;28;10766;-74
2022/02/19 14:59:22;;;;;;;;;0.00;0.00;;;;;;;;5059447;28;10145;-75
2022/02/19 15:01:49;;;;;;;;;0.00;0.00;;;;;;;;5062534;28;10004;-76
2022/02/19 15:04:16;;;;;;;;;0.00;0.00;;;;;;;;5064404;28;9929;-75